Time;durP1;ratioP1;P1;durP2;ratioP2;P2;SDS_P1;SDS_P2;PMS_P1;PMS_P2;Temp;Humidity;BMP_temperature;BMP_pressure;BME280_temperature;BME280_humidity;BME280_pressure;Samples;Min_cycle;Max_cycle;Signal;HPM_P1;HPM_P2
2022/05/10 00:00:11;;;;;;;16.40;11.53;;;;;;;17.23;55.66;101949.66;5205133;28;20018;-77
2022/05/10 00:02:50;;;;;;;17.27;12.43;;;;;;;17.16;56.11;101943.97;5190952;28;20038;-76
2022/05/10 00:05:26;;;;;;;20.93;12.80;;;;;;;17.49;55.52;101939.00;5190657;28;20057;-76
2022/05/10 00:07:59;;;;;;;21.57;12.80;;;;;;;17.41;55.53;101946.66;5198211;28;20141;-77
2022/05/10 00:10:31;;;;;;;19.97;11.90;;;;;;;17.44;55.31;101930.56;5190763;28;20052;-77
2022/05/10 00:13:03;;;;;;;15.87;12.17;;;;;;;17.42;55.35;101943.91;5188064;28;20038;-77
2022/05/10 00:15:35;;;;;;;15.67;12.83;;;;;;;17.26;55.99;101927.44;5190993;28;20517;-77
2022/05/10 00:18:11;;;;;;;20.30;12.40;;;;;;;17.31;56.11;101930.59;5190603;28;20026;-77
2022/05/10 00:20:44;;;;;;;21.83;12.70;;;;;;;17.25;56.10;101931.03;5190123;28;20030;-77
2022/05/10 00:23:15;;;;;;;20.20;12.77;;;;;;;17.22;56.04;101925.97;5193973;28;20014;-77
2022/05/10 00:25:46;;;;;;;17.43;12.07;;;;;;;17.16;56.18;101917.50;5209862;28;20049;-77
2022/05/10 00:28:18;;;;;;;20.30;13.77;;;;;;;17.30;56.06;101926.25;5193253;28;20565;-77
2022/05/10 00:30:49;;;;;;;22.37;13.67;;;;;;;17.19;56.34;101908.50;5193179;28;20026;-77
2022/05/10 00:33:26;;;;;;;20.43;14.30;;;;;;;16.95;56.73;101906.59;5192537;28;20030;-76
2022/05/10 00:35:58;;;;;;;17.73;12.80;;;;;;;16.99;57.13;101913.38;5194284;28;20041;-75
2022/05/10 00:38:33;;;;;;;21.37;13.83;;;;;;;16.68;57.93;101916.38;5193049;28;20485;-77
2022/05/10 00:41:12;;;;;;;18.83;14.93;;;;;;;16.64;57.85;101914.03;5193309;28;20049;-77
2022/05/10 00:43:49;;;;;;;19.33;14.03;;;;;;;16.95;57.23;101905.78;5192214;28;20033;-77
2022/05/10 00:46:35;;;;;;;25.70;14.63;;;;;;;16.83;57.02;101904.81;5193171;28;20081;-76
2022/05/10 00:49:38;;;;;;;19.33;14.07;;;;;;;16.75;56.74;101905.34;5192457;28;20062;-77
2022/05/10 00:52:18;;;;;;;20.50;13.97;;;;;;;16.63;58.09;101891.19;5204627;28;20042;-77
2022/05/10 00:55:23;;;;;;;19.03;14.33;;;;;;;16.67;57.50;101901.44;5194079;28;20026;-77
2022/05/10 00:58:03;;;;;;;22.03;15.07;;;;;;;16.47;58.75;101894.88;5177824;28;20041;-77
2022/05/10 01:00:35;;;;;;;18.83;14.20;;;;;;;16.45;58.87;101896.78;5183179;28;20335;-76
2022/05/10 01:03:23;;;;;;;21.37;15.27;;;;;;;16.66;57.98;101894.47;5191757;28;20010;-76
2022/05/10 01:06:01;;;;;;;20.70;15.07;;;;;;;16.31;59.51;101889.78;5193834;28;20105;-77
2022/05/10 01:08:43;;;;;;;22.47;15.87;;;;;;;16.32;59.27;101891.47;5192966;28;20089;-76
2022/05/10 01:11:23;;;;;;;19.63;14.77;;;;;;;16.76;58.14;101888.53;5193445;28;20070;-76
2022/05/10 01:14:04;;;;;;;28.03;14.97;;;;;;;16.45;59.09;101886.22;5190650;28;20548;-76
2022/05/10 01:16:35;;;;;;;18.07;14.67;;;;;;;16.52;58.76;101868.97;5193644;28;20022;-76
2022/05/10 01:19:06;;;;;;;21.97;14.43;;;;;;;16.60;58.37;101884.28;5193095;28;20090;-76
2022/05/10 01:22:05;;;;;;;24.73;15.50;;;;;;;16.76;57.77;101875.28;5193577;28;20062;-76
2022/05/10 01:24:54;;;;;;;21.17;14.53;;;;;;;16.54;58.56;101880.31;5193386;28;20022;-76
2022/05/10 01:27:45;;;;;;;25.70;15.37;;;;;;;16.52;58.96;101876.91;5191131;28;20566;-76
2022/05/10 01:30:23;;;;;;;19.93;15.47;;;;;;;16.50;59.33;101877.94;5192526;28;20130;-76
2022/05/10 01:35:57;;;;;;;22.77;15.40;;;;;;;16.19;59.72;101862.41;5193975;28;20505;-76
2022/05/10 01:38:45;;;;;;;22.63;14.70;;;;;;;16.39;58.95;101865.50;5193236;28;20034;-76
2022/05/10 01:41:24;;;;;;;21.07;14.80;;;;;;;16.15;60.28;101853.84;5191808;28;20033;-76
2022/05/10 01:44:13;;;;;;;19.57;14.13;;;;;;;16.38;59.49;101862.00;5191470;28;20405;-76
2022/05/10 01:46:50;;;;;;;21.27;14.10;;;;;;;16.03;61.41;101855.50;5207670;28;20023;-76
2022/05/10 01:49:38;;;;;;;18.30;15.23;;;;;;;16.33;59.70;101850.88;5192273;28;20034;-75
2022/05/10 01:52:25;;;;;;;23.77;16.27;;;;;;;16.06;60.37;101839.44;5192190;28;20504;-76
2022/05/10 01:55:01;;;;;;;24.30;15.00;;;;;;;16.21;60.51;101848.13;5177612;28;20084;-77
2022/05/10 01:57:38;;;;;;;20.73;16.07;;;;;;;15.89;61.39;101843.19;5191689;28;20053;-76
2022/05/10 02:00:22;;;;;;;19.63;14.70;;;;;;;15.89;61.15;101837.91;5191684;28;20080;-77
2022/05/10 02:03:04;;;;;;;19.13;15.57;;;;;;;16.01;61.09;101843.34;5192713;28;20054;-77
2022/05/10 02:05:49;;;;;;;22.70;17.10;;;;;;;16.06;60.74;101835.94;5192703;28;20026;-77
2022/05/10 02:08:42;;;;;;;25.00;16.90;;;;;;;15.80;62.14;101831.44;5192371;28;20026;-76
2022/05/10 02:11:16;;;;;;;18.67;15.23;;;;;;;15.72;62.97;101836.41;5192244;28;20041;-76
2022/05/10 02:13:54;;;;;;;20.92;16.25;;;;;;;15.78;62.29;101829.88;5190878;28;20493;-77
2022/05/10 02:16:40;;;;;;;19.10;15.53;;;;;;;15.90;61.49;101825.56;5190696;28;20054;-76
2022/05/10 02:19:23;;;;;;;20.97;15.33;;;;;;;16.00;61.28;101823.16;5190769;28;20013;-77
2022/05/10 02:22:04;;;;;;;17.53;14.70;;;;;;;15.86;62.21;101817.00;5189840;28;20033;-77
2022/05/10 02:24:42;;;;;;;19.97;15.10;;;;;;;15.85;62.31;101816.13;5191021;28;20290;-76
2022/05/10 02:27:22;;;;;;;21.40;16.13;;;;;;;15.81;61.95;101813.81;5190386;28;20074;-77
2022/05/10 02:30:26;;;;;;;22.40;17.27;;;;;;;15.64;62.88;101814.94;5205350;28;20038;-76
2022/05/10 02:33:08;;;;;;;22.23;15.68;;;;;;;15.77;62.22;101807.88;5196073;28;20140;-76
2022/05/10 02:35:46;;;;;;;22.03;17.57;;;;;;;15.63;63.77;101806.16;5191692;28;20038;-77
2022/05/10 02:38:22;;;;;;;18.83;15.53;;;;;;;15.84;62.78;101803.03;5192269;28;20026;-76
2022/05/10 02:40:57;;;;;;;17.63;15.67;;;;;;;15.82;63.02;101799.63;5189996;28;20022;-77
2022/05/10 02:43:32;;;;;;;22.10;15.43;;;;;;;15.81;62.48;101797.97;5190888;28;20528;-76
2022/05/10 02:46:03;;;;;;;20.27;15.00;;;;;;;15.75;63.08;101795.72;5190712;28;20409;-76
2022/05/10 02:48:36;;;;;;;20.07;16.10;;;;;;;15.81;63.01;101797.97;5191989;28;20034;-77
2022/05/10 02:51:08;;;;;;;17.57;15.10;;;;;;;15.60;63.83;101788.72;5191236;28;20034;-77
2022/05/10 02:53:39;;;;;;;20.83;15.33;;;;;;;15.39;64.71;101793.63;5205309;28;20038;-76
2022/05/10 02:56:13;;;;;;;19.63;15.93;;;;;;;15.35;64.77;101771.00;5191761;28;20402;-76
2022/05/10 02:58:54;;;;;;;23.73;16.20;;;;;;;15.53;64.01;101781.31;5190458;28;20093;-77
2022/05/10 03:01:33;;;;;;;24.83;16.50;;;;;;;15.14;66.15;101779.38;5191720;28;20026;-77
2022/05/10 03:04:07;;;;;;;23.47;16.70;;;;;;;15.23;65.80;101786.72;5191011;28;20034;-76
2022/05/10 03:06:42;;;;;;;20.77;15.77;;;;;;;15.39;65.00;101775.16;5192153;28;20026;-76
2022/05/10 03:09:14;;;;;;;26.63;18.23;;;;;;;15.55;64.04;101776.78;5191022;28;20425;-76
2022/05/10 03:11:45;;;;;;;21.30;16.10;;;;;;;15.31;65.13;101766.88;5190341;28;20019;-76
2022/05/10 03:14:17;;;;;;;24.13;15.87;;;;;;;15.23;65.17;101770.88;5190011;28;20476;-76
2022/05/10 03:16:48;;;;;;;24.93;16.27;;;;;;;15.56;64.02;101768.75;5191657;28;20508;-76
2022/05/10 03:19:20;;;;;;;27.67;15.97;;;;;;;15.33;65.01;101772.91;5190712;28;20104;-77
2022/05/10 03:21:51;;;;;;;22.50;16.67;;;;;;;15.28;65.44;101764.44;5191457;28;20536;-76
2022/05/10 03:24:22;;;;;;;20.10;16.00;;;;;;;15.26;64.92;101751.34;5190733;28;20113;-76
2022/05/10 03:26:54;;;;;;;25.37;16.93;;;;;;;15.54;63.99;101761.88;5190131;28;20440;-77
2022/05/10 03:29:26;;;;;;;23.13;17.53;;;;;;;15.35;64.89;101763.09;5191369;28;20489;-76
2022/05/10 03:31:57;;;;;;;21.30;16.13;;;;;;;15.46;64.19;101757.94;5190600;28;20019;-77
2022/05/10 03:37:18;;;;;;;26.70;17.47;;;;;;;15.65;63.44;101742.69;5190939;28;20073;-77
2022/05/10 03:39:50;;;;;;;17.80;15.73;;;;;;;15.60;63.67;101743.81;5191537;28;20733;-77
2022/05/10 03:42:22;;;;;;;24.60;16.67;;;;;;;15.40;64.37;101746.94;5189300;28;20014;-77
2022/05/10 03:44:53;;;;;;;29.07;17.10;;;;;;;15.42;64.35;101758.25;5189243;28;20027;-78
2022/05/10 03:47:27;;;;;;;29.37;19.10;;;;;;;15.24;65.31;101742.69;5191243;28;20040;-77
2022/05/10 03:49:58;;;;;;;27.67;16.70;;;;;;;15.42;64.24;101738.00;5190725;28;20453;-77
2022/05/10 03:52:29;;;;;;;21.63;16.03;;;;;;;15.22;65.26;101744.59;5191456;28;20038;-78
2022/05/10 03:55:00;;;;;;;23.53;16.33;;;;;;;15.46;63.86;101728.09;5205120;28;20033;-77
2022/05/10 03:57:32;;;;;;;23.63;17.77;;;;;;;15.30;64.95;101737.03;5209654;28;20050;-76
2022/05/10 04:00:07;;;;;;;28.27;18.17;;;;;;;15.29;64.82;101732.66;5192823;28;20030;-76
2022/05/10 04:02:39;;;;;;;21.60;16.47;;;;;;;15.29;64.99;101735.31;5194808;28;20077;-77
2022/05/10 04:05:13;;;;;;;24.37;17.00;;;;;;;15.32;65.15;101731.63;5194522;28;20109;-77
2022/05/10 04:07:44;;;;;;;23.37;16.80;;;;;;;15.53;63.71;101731.16;5195030;28;20045;-76
2022/05/10 04:10:17;;;;;;;29.10;16.97;;;;;;;15.51;63.79;101728.63;5208785;28;20026;-76
2022/05/10 04:12:49;;;;;;;27.17;17.63;;;;;;;15.51;63.70;101733.03;5193582;28;20424;-76
2022/05/10 04:15:20;;;;;;;24.83;17.60;;;;;;;15.34;64.28;101733.22;5194387;28;20030;-76
2022/05/10 04:17:52;;;;;;;22.73;16.63;;;;;;;15.31;65.18;101733.41;5193868;28;20022;-75
2022/05/10 04:20:23;;;;;;;27.40;17.63;;;;;;;15.21;65.14;101722.63;5209072;28;20121;-76
2022/05/10 04:22:54;;;;;;;26.80;16.97;;;;;;;15.17;65.10;101731.69;5205541;28;20053;-77
2022/05/10 04:25:26;;;;;;;29.17;16.77;;;;;;;15.27;64.53;101725.81;5194372;28;20474;-77
2022/05/10 04:27:57;;;;;;;30.43;18.40;;;;;;;15.25;64.82;101733.84;5192295;28;20038;-77
2022/05/10 04:30:28;;;;;;;31.03;17.50;;;;;;;15.32;64.15;101729.84;5194904;28;20057;-76
2022/05/10 04:33:00;;;;;;;29.67;16.50;;;;;;;15.50;63.51;101726.91;5209521;28;20030;-76
2022/05/10 04:35:32;;;;;;;28.23;18.03;;;;;;;15.41;63.77;101727.53;5192146;28;20045;-76
2022/05/10 04:38:04;;;;;;;25.33;15.60;;;;;;;15.51;63.45;101725.97;5194384;28;20029;-76
2022/05/10 04:43:25;;;;;;;24.03;15.87;;;;;;;15.47;63.38;101717.41;5192864;28;20034;-76
2022/05/10 04:45:57;;;;;;;26.47;15.60;;;;;;;15.47;63.71;101716.56;5193557;28;20030;-76
2022/05/10 04:48:28;;;;;;;34.53;17.33;;;;;;;15.44;63.94;101715.00;5194320;28;20026;-75
2022/05/10 04:51:00;;;;;;;26.60;15.27;;;;;;;15.59;63.32;101714.88;5191459;28;20022;-76
2022/05/10 04:53:32;;;;;;;24.50;16.70;;;;;;;15.61;63.17;101710.34;5194241;28;20026;-77
2022/05/10 04:56:05;;;;;;;27.33;16.27;;;;;;;15.52;63.62;101703.91;5192995;28;20033;-77
2022/05/10 04:58:36;;;;;;;25.57;16.57;;;;;;;15.66;62.73;101702.13;5191800;28;20030;-77
2022/05/10 05:01:09;;;;;;;33.63;16.33;;;;;;;15.65;62.87;101703.94;5192714;28;20026;-75
2022/05/10 05:03:46;;;;;;;30.30;16.37;;;;;;;15.75;63.08;101708.56;5194064;28;20022;-76
2022/05/10 05:06:18;;;;;;;29.73;15.73;;;;;;;15.87;62.41;101707.72;5193473;28;20030;-78
2022/05/10 05:08:50;;;;;;;24.67;17.23;;;;;;;15.81;62.80;101710.81;5192341;28;20112;-76
2022/05/10 05:11:22;;;;;;;33.57;16.53;;;;;;;15.75;63.45;101719.13;5208259;28;20460;-76
2022/05/10 05:13:54;;;;;;;23.63;15.27;;;;;;;15.93;62.58;101712.59;5202840;28;20053;-77
2022/05/10 05:16:25;;;;;;;20.60;14.47;;;;;;;15.85;63.24;101720.19;5192366;28;20026;-76
2022/05/10 05:18:56;;;;;;;24.10;14.60;;;;;;;15.88;62.83;101705.94;5192605;28;20022;-77
2022/05/10 05:21:28;;;;;;;23.13;14.10;;;;;;;15.95;63.38;101712.50;5193474;28;20038;-76
2022/05/10 05:23:59;;;;;;;19.37;12.37;;;;;;;15.92;63.74;101710.91;5192373;28;20030;-77
2022/05/10 05:26:31;;;;;;;24.10;12.50;;;;;;;15.98;63.22;101714.91;5207068;28;20489;-76
2022/05/10 05:29:03;;;;;;;21.60;12.73;;;;;;;16.10;62.57;101723.81;5193419;28;20380;-76
2022/05/10 05:31:34;;;;;;;24.60;13.23;;;;;;;16.11;62.75;101714.94;5192174;28;20034;-76
2022/05/10 05:34:06;;;;;;;18.77;13.60;;;;;;;16.14;63.36;101704.16;5188370;28;20030;-76
2022/05/10 05:36:37;;;;;;;20.33;12.70;;;;;;;16.13;63.55;101715.66;5192818;28;20473;-77
2022/05/10 05:39:08;;;;;;;19.37;12.63;;;;;;;16.21;63.07;101715.16;5192459;28;20038;-77
2022/05/10 05:41:39;;;;;;;19.87;13.10;;;;;;;16.25;62.52;101705.22;5191226;28;20034;-76
2022/05/10 05:44:11;;;;;;;16.97;12.00;;;;;;;16.38;62.65;101721.03;5193104;28;20030;-76
2022/05/10 05:46:42;;;;;;;24.77;12.67;;;;;;;16.41;61.90;101711.09;5193373;28;20030;-79
2022/05/10 05:49:13;;;;;;;21.10;13.00;;;;;;;16.48;61.92;101708.84;5208997;28;20041;-80
2022/05/10 05:51:44;;;;;;;18.50;12.07;;;;;;;16.46;62.81;101705.47;5193531;28;20030;-79
2022/05/10 05:54:16;;;;;;;19.53;12.70;;;;;;;16.56;62.61;101703.84;5189967;28;20023;-81
2022/05/10 05:56:47;;;;;;;19.83;12.27;;;;;;;16.60;62.67;101714.22;5206083;28;20034;-78
2022/05/10 05:59:18;;;;;;;17.83;12.40;;;;;;;16.63;62.50;101696.34;5206941;28;20093;-80
2022/05/10 06:01:50;;;;;;;14.73;11.60;;;;;;;16.67;62.38;101692.50;5190180;28;20026;-80
2022/05/10 06:04:21;;;;;;;18.53;11.83;;;;;;;16.80;61.42;101694.25;5192494;28;20031;-80
2022/05/10 06:06:52;;;;;;;15.03;10.27;;;;;;;16.89;61.68;101688.31;5190180;28;20038;-80
2022/05/10 06:09:24;;;;;;;19.33;10.80;;;;;;;16.93;61.08;101689.75;5189613;28;20536;-79
2022/05/10 06:11:55;;;;;;;17.83;10.33;;;;;;;17.05;60.81;101687.16;5188421;28;20079;-79
2022/05/10 06:14:26;;;;;;;19.13;11.13;;;;;;;17.12;61.95;101693.69;5205865;28;20133;-81
2022/05/10 06:16:58;;;;;;;15.40;10.20;;;;;;;17.24;60.71;101696.41;5186892;28;20735;-79
2022/05/10 06:19:30;;;;;;;17.43;9.60;;;;;;;17.33;60.45;101698.34;5188166;28;20070;-78
2022/05/10 06:22:02;;;;;;;11.03;9.60;;;;;;;17.41;59.98;101698.63;5202351;28;20069;-82
2022/05/10 06:24:34;;;;;;;11.23;9.43;;;;;;;17.48;59.85;101690.19;5205601;28;20034;-80
2022/05/10 06:27:10;;;;;;;14.03;9.00;;;;;;;17.65;59.49;101696.84;5188244;28;20034;-80
2022/05/10 06:29:41;;;;;;;16.40;9.03;;;;;;;17.69;59.00;101690.38;5187558;28;20030;-78
2022/05/10 06:32:21;;;;;;;13.73;8.93;;;;;;;17.76;59.12;101685.44;5205923;28;20037;-79
2022/05/10 06:34:53;;;;;;;11.40;9.20;;;;;;;17.81;59.05;101691.22;5197418;28;20022;-79
2022/05/10 06:40:19;;;;;;;17.45;8.75;;;;;;;17.94;58.57;101692.91;5165212;28;20184;-79
2022/05/10 06:42:51;;;;;;;12.87;8.47;;;;;;;17.94;58.62;101674.38;5190531;28;20504;-78
2022/05/10 06:45:22;;;;;;;15.73;9.00;;;;;;;18.02;58.76;101686.06;5189684;28;20073;-79
2022/05/10 06:47:54;;;;;;;10.70;8.27;;;;;;;18.05;58.33;101684.97;5202648;28;20442;-77
2022/05/10 06:50:26;;;;;;;10.30;8.27;;;;;;;18.10;58.58;101677.47;5189770;28;20436;-77
2022/05/10 06:52:59;;;;;;;12.53;8.00;;;;;;;18.22;58.19;101686.31;5189506;28;20015;-73
2022/05/10 06:55:33;;;;;;;11.80;7.73;;;;;;;18.29;58.58;101676.06;5185773;28;20031;-75
2022/05/10 06:58:05;;;;;;;15.95;7.25;;;;;;;18.35;58.89;101675.56;5188641;28;20560;-75
2022/05/10 07:00:39;;;;;;;11.10;7.43;;;;;;;18.47;58.34;101673.75;5191503;28;20097;-74
2022/05/10 07:03:14;;;;;;;17.17;7.77;;;;;;;18.48;57.82;101656.84;5191118;28;20022;-74
2022/05/10 07:05:46;;;;;;;9.13;6.67;;;;;;;18.68;57.02;101670.31;5206269;28;20018;-80
2022/05/10 07:08:17;;;;;;;13.20;7.53;;;;;;;18.80;57.69;101668.44;5189764;28;20050;-82
2022/05/10 07:10:48;;;;;;;15.60;7.03;;;;;;;18.94;56.32;101669.13;5191032;28;20026;-81
2022/05/10 07:13:26;;;;;;;9.77;5.90;;;;;;;19.10;55.99;101664.22;5189722;28;20057;-81
2022/05/10 07:15:57;;;;;;;10.57;6.93;;;;;;;19.20;55.88;101666.97;5190462;28;20026;-81
2022/05/10 07:18:29;;;;;;;15.67;7.23;;;;;;;19.36;55.37;101659.56;5190190;28;20030;-80
2022/05/10 07:21:01;;;;;;;13.63;6.20;;;;;;;19.51;54.83;101657.38;5189964;28;20066;-83
2022/05/10 07:23:33;;;;;;;13.97;6.87;;;;;;;19.71;54.49;101653.84;5190195;28;20026;-83
2022/05/10 07:26:05;;;;;;;8.63;6.77;;;;;;;19.83;54.00;101651.09;5191553;28;20026;-84
2022/05/10 07:28:36;;;;;;;14.27;6.47;;;;;;;20.10;53.50;101655.03;5207274;28;20045;-82
2022/05/10 07:31:07;;;;;;;12.43;6.20;;;;;;;20.26;52.47;101643.88;5195199;28;20022;-78
2022/05/10 07:33:39;;;;;;;11.77;5.90;;;;;;;20.47;51.84;101642.91;5196299;28;20026;-79
2022/05/10 07:36:25;;;;;;;6.97;5.67;;;;;;;20.49;51.53;101654.25;5197124;28;20116;-76
2022/05/10 07:38:56;;;;;;;8.83;5.53;;;;;;;20.43;52.46;101655.66;5197690;28;20091;-77
2022/05/10 07:41:27;;;;;;;7.67;5.03;;;;;;;20.49;52.05;101642.78;5198350;28;20030;-76
2022/05/10 07:43:59;;;;;;;11.73;5.00;;;;;;;20.54;51.39;101646.69;5196012;28;20085;-76
2022/05/10 07:46:30;;;;;;;15.33;5.57;;;;;;;20.66;51.69;101638.59;5197719;28;20232;-75
2022/05/10 07:49:01;;;;;;;10.53;5.47;;;;;;;20.88;51.29;101641.94;5197457;28;20034;-77
2022/05/10 07:51:33;;;;;;;8.80;5.57;;;;;;;21.10;50.12;101645.31;5196663;28;20037;-77
2022/05/10 07:54:05;;;;;;;7.43;4.47;;;;;;;21.24;49.57;101642.19;5197368;28;20477;-76
2022/05/10 07:56:38;;;;;;;11.30;4.17;;;;;;;21.39;49.51;101649.75;5197471;28;20045;-77
2022/05/10 07:59:09;;;;;;;13.50;5.00;;;;;;;21.38;49.14;101645.41;5197162;28;20089;-84
2022/05/10 08:01:40;;;;;;;13.73;5.63;;;;;;;21.42;48.44;101648.63;5197138;28;20019;-83
2022/05/10 08:04:11;;;;;;;7.00;4.60;;;;;;;21.49;48.45;101639.06;5211702;28;20097;-78
2022/05/10 08:06:43;;;;;;;8.87;4.47;;;;;;;21.69;47.90;101639.84;5197547;28;20018;-80
2022/05/10 08:09:14;;;;;;;10.70;4.57;;;;;;;21.79;48.23;101642.47;5196868;28;20023;-79
2022/05/10 08:11:46;;;;;;;7.53;4.70;;;;;;;22.01;47.80;101648.41;5196781;28;20019;-81
2022/05/10 08:14:17;;;;;;;12.13;4.63;;;;;;;21.96;47.31;101642.66;5196645;28;20053;-80
2022/05/10 08:16:49;;;;;;;14.03;4.60;;;;;;;21.92;46.23;101639.50;5195636;28;20045;-82
2022/05/10 08:19:20;;;;;;;11.60;4.20;;;;;;;21.71;47.52;101643.16;5196401;28;20334;-82
2022/05/10 08:21:55;;;;;;;11.13;5.27;;;;;;;21.63;46.97;101633.25;5196247;28;20026;-83
2022/05/10 08:24:27;;;;;;;8.50;4.87;;;;;;;21.68;47.33;101640.81;5211263;28;20474;-82
2022/05/10 08:26:59;;;;;;;11.93;4.87;;;;;;;21.81;47.65;101637.84;5195569;28;20026;-84
2022/05/10 08:29:30;;;;;;;14.03;5.23;;;;;;;21.68;47.58;101637.31;5198121;28;20036;-84
2022/05/10 08:32:02;;;;;;;11.80;4.90;;;;;;;21.64;47.57;101637.59;5200100;28;20033;-81
2022/05/10 08:34:35;;;;;;;9.37;4.83;;;;;;;21.60;47.23;101636.22;5196802;28;20429;-83
2022/05/10 08:37:06;;;;;;;10.60;5.30;;;;;;;21.55;47.18;101629.63;5213357;28;20109;-86
2022/05/10 08:39:37;;;;;;;10.50;4.30;;;;;;;21.48;47.92;101619.56;5196923;28;20108;-86
2022/05/10 08:42:25;;;;;;;9.63;4.57;;;;;;;21.54;47.95;101625.31;5194061;28;20118;-84
2022/05/10 08:44:59;;;;;;;10.67;4.43;;;;;;;21.41;47.98;101621.13;5194080;28;20473;-84
2022/05/10 08:47:31;;;;;;;;;;;;;;;21.93;46.52;101625.16;5195052;28;20361;-78
2022/05/10 08:50:06;;;;;;;13.37;4.43;;;;;;;21.45;47.44;101619.84;5193656;28;19925;-79
2022/05/10 08:52:45;;;;;;;10.07;4.53;;;;;;;21.46;47.59;101610.88;5194939;28;20034;-80
2022/05/10 08:55:30;;;;;;;6.90;4.00;;;;;;;21.52;47.45;101618.28;5209472;28;20366;-79
2022/05/10 08:58:32;;;;;;;7.60;3.90;;;;;;;21.65;47.58;101609.13;5192040;28;20046;-76
2022/05/10 09:01:08;;;;;;;12.30;4.57;;;;;;;21.64;47.06;101604.78;5193612;28;20049;-79
2022/05/10 09:03:46;;;;;;;7.00;4.40;;;;;;;21.83;46.66;101613.72;5194517;28;20034;-77
2022/05/10 09:06:34;;;;;;;13.40;4.17;;;;;;;22.40;46.04;101599.31;5193581;28;20105;-78
2022/05/10 09:09:16;;;;;;;8.60;4.50;;;;;;;22.82;44.82;101607.69;5193255;28;20112;-80
2022/05/10 09:11:59;;;;;;;7.50;3.80;;;;;;;22.95;44.60;101596.63;5191200;28;20041;-77
2022/05/10 09:14:37;;;;;;;8.93;4.05;;;;;;;23.27;43.81;101611.16;5193072;28;20056;-77
2022/05/10 09:17:09;;;;;;;8.30;3.75;;;;;;;23.50;43.41;101596.44;5193460;28;20113;-76
2022/05/10 09:19:43;;;;;;;8.77;4.07;;;;;;;23.60;42.89;101602.50;5208684;28;20064;-75
2022/05/10 09:22:38;;;;;;;8.80;4.03;;;;;;;23.83;42.95;101591.22;5207772;28;20037;-80
2022/05/10 09:25:28;;;;;;;7.57;5.18;;;;;;;23.95;42.15;101599.78;5192545;28;20497;-67
2022/05/10 09:28:11;;;;;;;10.27;4.00;;;;;;;23.96;42.01;101596.13;5190856;28;20098;-75
2022/05/10 09:34:45;;;;;;;9.38;4.15;;;;;;;24.01;42.27;101585.78;5191930;28;20039;-74
2022/05/10 09:36:29;;;;;;;8.23;3.95;;;;;;;24.10;42.12;101589.31;5193031;28;20034;-71
2022/05/10 09:39:28;;;;;;;12.05;5.00;;;;;;;24.29;41.67;101571.31;5192526;28;20584;-72
2022/05/10 09:41:59;;;;;;;8.13;4.28;;;;;;;24.21;40.77;101573.97;5191966;28;20030;-74
2022/05/10 09:44:30;;;;;;;6.63;3.83;;;;;;;24.34;41.34;101576.16;5191871;28;20114;-73
2022/05/10 09:47:17;;;;;;;8.30;3.92;;;;;;;24.51;41.17;101582.34;5193025;28;20042;-77
2022/05/10 09:49:48;;;;;;;8.70;4.07;;;;;;;24.34;40.39;101574.31;5192496;28;20026;-73
2022/05/10 09:52:23;;;;;;;14.90;5.00;;;;;;;24.45;40.30;101581.19;5191935;28;20038;-73
2022/05/10 09:54:57;;;;;;;6.40;4.20;;;;;;;24.79;40.53;101576.63;5192646;28;20038;-74
2022/05/10 09:57:37;;;;;;;;;;;;;;;25.34;40.37;101579.53;5192035;28;20045;-75
2022/05/10 10:00:37;;;;;;;4.97;3.72;;;;;;;25.99;39.31;101573.22;5192768;28;19953;-79
2022/05/10 10:03:09;;;;;;;8.77;4.40;;;;;;;26.09;37.39;101564.97;5192877;28;20044;-72
2022/05/10 10:05:40;;;;;;;10.00;3.95;;;;;;;26.46;37.07;101551.81;5192349;28;20030;-73
2022/05/10 10:08:11;;;;;;;10.85;3.95;;;;;;;26.76;37.48;101559.91;5194305;28;20323;-80
2022/05/10 10:10:44;;;;;;;7.85;3.83;;;;;;;27.06;36.08;101554.59;5189974;28;20049;-80
2022/05/10 10:13:28;;;;;;;10.98;4.85;;;;;;;27.44;35.96;101549.28;5189753;28;20035;-80
2022/05/10 10:16:00;;;;;;;;;;;;;;;27.89;36.14;101543.81;5191293;28;20169;-79
2022/05/10 10:18:47;;;;;;;10.60;4.07;;;;;;;27.88;35.52;101542.13;5191788;28;20621;-87
2022/05/10 10:21:27;;;;;;;7.40;3.85;;;;;;;28.40;32.90;101538.50;5190223;28;20482;-77
2022/05/10 10:24:00;;;;;;;11.63;3.85;;;;;;;28.20;33.50;101548.03;5206599;28;20141;-78
2022/05/10 10:26:42;;;;;;;9.35;3.65;;;;;;;28.35;33.44;101534.50;5190739;28;20501;-77
2022/05/10 10:29:16;;;;;;;11.25;3.40;;;;;;;28.06;32.77;101541.69;5191897;28;20018;-75
2022/05/10 10:31:52;;;;;;;20.55;3.90;;;;;;;27.92;32.77;101561.41;5191461;28;20090;-75
2022/05/10 10:34:32;;;;;;;9.25;3.75;;;;;;;27.57;33.71;101553.97;5191531;28;20130;-78
2022/05/10 10:37:09;;;;;;;13.18;3.60;;;;;;;27.72;33.40;101546.72;5190832;28;20030;-74
2022/05/10 10:39:50;;;;;;;10.07;4.18;;;;;;;27.64;33.64;101530.69;5190119;28;20034;-76
2022/05/10 10:42:33;;;;;;;12.55;3.60;;;;;;;27.67;33.29;101541.91;5189844;28;20429;-75
2022/05/10 10:45:12;;;;;;;10.82;3.90;;;;;;;27.65;32.86;101537.72;5188262;28;20026;-76
2022/05/10 10:48:04;;;;;;;7.35;3.35;;;;;;;27.60;33.24;101524.84;5189297;28;20124;-75
2022/05/10 10:50:36;;;;;;;15.88;4.22;;;;;;;27.13;32.70;101543.09;5206539;28;20030;-76
2022/05/10 10:53:09;;;;;;;11.63;4.80;;;;;;;26.97;33.32;101533.34;5191159;28;20622;-76
2022/05/10 10:55:44;;;;;;;;;;;;;;;27.39;33.36;101528.31;5190065;28;20102;-75
2022/05/10 10:58:21;;;;;;;12.40;3.92;;;;;;;26.98;33.66;101535.84;5192078;28;20293;-77
2022/05/10 11:01:12;;;;;;;24.38;4.35;;;;;;;26.90;33.87;101522.47;5189129;28;20018;-76
2022/05/10 11:04:02;;;;;;;15.43;4.78;;;;;;;26.69;34.12;101518.66;5189737;28;20133;-77
2022/05/10 11:06:54;;;;;;;13.60;4.93;;;;;;;26.66;33.88;101516.34;5203013;28;20025;-76
2022/05/10 11:09:44;;;;;;;23.08;4.50;;;;;;;26.31;34.76;101520.34;5187463;28;20584;-77
2022/05/10 11:12:36;;;;;;;10.15;4.45;;;;;;;26.31;35.01;101514.13;5202814;28;20023;-78
2022/05/10 11:15:23;;;;;;;12.52;4.40;;;;;;;26.05;35.56;101499.25;5198700;28;20044;-78
2022/05/10 11:18:00;;;;;;;15.07;4.28;;;;;;;26.03;35.12;101502.09;5183204;28;20037;-77
2022/05/10 11:20:56;;;;;;;11.63;4.38;;;;;;;25.96;34.81;101501.16;5203388;28;20481;-75
2022/05/10 11:23:42;;;;;;;9.85;4.13;;;;;;;25.76;35.20;101503.47;5203075;28;20084;-76
2022/05/10 11:26:39;;;;;;;11.23;4.72;;;;;;;25.91;35.45;101501.69;5190384;28;20022;-77
2022/05/10 11:29:16;;;;;;;13.40;5.00;;;;;;;25.92;35.25;101489.13;5190645;28;20045;-78
2022/05/10 11:32:17;;;;;;;22.08;4.97;;;;;;;26.24;35.30;101487.16;5191304;28;20031;-77
2022/05/10 11:35:15;;;;;;;7.72;3.65;;;;;;;26.47;35.30;101494.38;5206065;28;20130;-74
2022/05/10 11:38:19;;;;;;;7.70;3.88;;;;;;;26.64;35.13;101483.47;5191447;28;20062;-76
2022/05/10 11:41:18;;;;;;;10.30;4.53;;;;;;;26.61;34.90;101479.31;5188025;28;20086;-77
2022/05/10 11:44:08;;;;;;;11.32;3.90;;;;;;;26.53;35.05;101488.25;5191300;28;20306;-75
2022/05/10 11:47:19;;;;;;;6.57;4.20;;;;;;;26.45;34.83;101482.97;5189628;28;20031;-77
2022/05/10 11:50:06;;;;;;;12.20;4.13;;;;;;;26.37;35.04;101475.00;5190110;28;20023;-78
2022/05/10 11:53:11;;;;;;;13.90;4.18;;;;;;;26.46;34.64;101463.19;5205573;28;20935;-79
2022/05/10 11:55:52;;;;;;;10.55;3.42;;;;;;;26.46;34.58;101469.38;5188784;28;20039;-78
2022/05/10 11:58:26;;;;;;;10.63;3.78;;;;;;;26.34;33.52;101460.94;5191328;28;20033;-78
2022/05/10 12:00:59;;;;;;;;;;;;;;;26.65;33.81;101477.91;5191175;28;20117;-74
2022/05/10 12:03:36;;;;;;;13.85;4.43;;;;;;;26.48;34.02;101473.75;5191280;28;20284;-74
2022/05/10 12:06:23;;;;;;;16.67;4.15;;;;;;;26.49;33.88;101472.72;5181633;28;20497;-74
2022/05/10 12:08:57;;;;;;;17.42;4.15;;;;;;;26.27;33.58;101465.31;5170072;28;20217;-74
2022/05/10 12:11:28;;;;;;;7.38;3.45;;;;;;;26.40;33.73;101463.91;5169563;28;20026;-74